모두
San Ysidro Ranch Airport (Catarina, TX) TS40 기상
There is no TAF data available at TS40 or any nearby airports.
There is no METAR data available at TS40. Showing METAR data for KCZT (16 mi 서북).
최근 CZT METAR 이력(TS40에 대한 데이터 없음)
| Date | Time (CDT) | Flight Rules | Wind Dir. | Speed | Type | Height AGL (ft) | Visibility | Temp (°C) | Temp (°F) | Dew Point (°C) | Dew Point (°F) | Rel. Humid. | Pressure | Density Altitude | Remarks |
|---|---|---|---|---|---|---|---|---|---|---|---|---|---|---|---|
| 05-9월 | 12:55 | VFR | 100° | 5 kt | 10 miles |
32° | 89° | 23° | 73° | 59% | 29.94 in Hg | 2,618 ft | |||
| 05-9월 | 12:15 | VFR | 110° | 8 kt | 7 miles | 31° | 87° | 23° | 73° | 63% | 29.95 in Hg | 2,488 ft | |||
| 05-9월 | 11:55 | VFR | 130° | 3 kt | 7 miles |
31° | 87° | 23° | 73° | 63% | 29.95 in Hg | 2,488 ft | |||
| 05-9월 | 11:15 | VFR | 120° | 6 kt | 10 miles | 29° | 84° | 25° | 77° | 79% | 29.96 in Hg | 2,238 ft | |||
| 05-9월 | 10:55 | VFR | 140° | 3 kt | 10 miles | 29° | 84° | 26° | 78° | 84% | 29.95 in Hg | 2,248 ft | |||
| 05-9월 | 10:15 | VFR | 100° | 6 kt | 10 miles | 28° | 82° | 26° | 78° | 89% | 29.96 in Hg | 2,118 ft | |||
| 05-9월 | 09:55 | VFR | 120° | 7 kt | 10 miles | 28° | 82° | 26° | 78° | 89% | 29.95 in Hg | 2,128 ft | |||
| 05-9월 | 09:15 | VFR | 110° | 5 kt | 10 miles | 27° | 80° | 27° | 80° | 100% | 29.95 in Hg | 2,008 ft | |||
| 05-9월 | 08:55 | VFR | 90° | 5 kt | 10 miles | 27° | 80° | 27° | 80° | 100% | 29.94 in Hg | 2,018 ft | |||
| 05-9월 | 08:15 | VFR | 110° | 3 kt | 10 miles | 26° | 78° | 26° | 78° | 100% | 29.94 in Hg | 1,898 ft | |||
| 05-9월 | 07:55 | VFR | 120° | 3 kt | 10 miles | 26° | 78° | 26° | 78° | 100% | 29.93 in Hg | 1,908 ft | |||
| 05-9월 | 07:15 | VFR | Calm | 10 miles | 25° | 77° | 25° | 77° | 100% | 29.91 in Hg | 1,808 ft | ||||
| 05-9월 | 06:55 | VFR | Calm | 10 miles | 25° | 77° | 25° | 77° | 100% | 29.91 in Hg | 1,808 ft | ||||
| 05-9월 | 06:15 | VFR | Calm | 10 miles | 25° | 77° | 25° | 77° | 100% | 29.90 in Hg | 1,818 ft | ||||
| 05-9월 | 05:55 | VFR | 90° | 3 kt | 10 miles | 25° | 77° | 25° | 77° | 100% | 29.89 in Hg | 1,828 ft | |||
| 05-9월 | 05:35 | VFR | 100° | 3 kt | 10 miles | 26° | 78° | 26° | 78° | 100% | 29.89 in Hg | 1,948 ft | |||
| 05-9월 | 05:15 | VFR | Calm | 10 miles | 26° | 78° | 25° | 77° | 94% | 29.89 in Hg | 1,948 ft | ||||
| 05-9월 | 04:55 | VFR | 110° | 3 kt | 10 miles | 26° | 78° | 25° | 77° | 94% | 29.89 in Hg | 1,948 ft | |||
| 05-9월 | 04:15 | VFR | 110° | 5 kt | 10 miles | 27° | 80° | 23° | 73° | 79% | 29.89 in Hg | 2,068 ft | |||
| 05-9월 | 03:55 | VFR | 120° | 6 kt | 10 miles | 27° | 80° | 23° | 73° | 79% | 29.89 in Hg | 2,068 ft | |||
| 05-9월 | 03:35 | VFR | 120° | 5 kt | 10 miles | 27° | 80° | 23° | 73° | 79% | 29.89 in Hg | 2,068 ft | |||
| 05-9월 | 03:15 | VFR | 140° | 7 kt | 10 miles | 27° | 80° | 23° | 73° | 79% | 29.89 in Hg | 2,068 ft | |||
| 05-9월 | 02:55 | VFR | 140° | 6 kt | 10 miles | 27° | 80° | 23° | 73° | 79% | 29.89 in Hg | 2,068 ft | |||
| 05-9월 | 02:35 | VFR | 140° | 7 kt | 10 miles | 28° | 82° | 23° | 73° | 74% | 29.89 in Hg | 2,188 ft |
로그인
| 귀하의 브라우저는 지원되지 않습니다.. 브라우저를 업그레이드하세요 |
